Time;durP1;ratioP1;P1;durP2;ratioP2;P2;SDS_P1;SDS_P2;PMS_P1;PMS_P2;Temp;Humidity;BMP_temperature;BMP_pressure;BME280_temperature;BME280_humidity;BME280_pressure;Samples;Min_cycle;Max_cycle;Signal;HPM_P1;HPM_P2
2022/01/24 00:02:24;;;;;;;26.20;11.35;;;-4.00;99.90;;;;;;5058691;28;20029;-94
2022/01/24 00:04:50;;;;;;;23.83;10.68;;;-4.00;99.90;;;;;;5059109;28;20067;-94
2022/01/24 00:07:19;;;;;;;24.67;11.48;;;-4.00;99.90;;;;;;5059379;28;20031;-94
2022/01/24 00:09:46;;;;;;;26.88;11.27;;;-4.00;99.90;;;;;;5059151;28;20391;-94
2022/01/24 00:12:25;;;;;;;29.38;12.00;;;-3.90;99.90;;;;;;5058963;28;20059;-93
2022/01/24 00:15:01;;;;;;;28.27;12.32;;;-3.90;99.90;;;;;;5059772;28;20052;-94
2022/01/24 00:17:34;;;;;;;24.30;11.65;;;-3.90;99.90;;;;;;5059916;28;20017;-95
2022/01/24 00:28:13;;;;;;;31.27;12.65;;;-3.80;99.90;;;;;;5077037;28;20102;-93
2022/01/24 00:30:39;;;;;;;37.67;13.20;;;-3.70;99.90;;;;;;5058826;28;20053;-92
2022/01/24 00:33:05;;;;;;;24.40;10.18;;;-3.70;99.90;;;;;;5058523;28;20017;-93
2022/01/24 00:35:31;;;;;;;32.30;11.23;;;-3.70;99.90;;;;;;5058510;28;20114;-94
2022/01/24 00:38:00;;;;;;;22.48;11.05;;;-3.70;99.90;;;;;;5059154;28;20025;-94
2022/01/24 00:40:27;;;;;;;32.80;13.75;;;-3.60;99.90;;;;;;5058590;28;20035;-93
2022/01/24 00:42:56;;;;;;;31.05;12.70;;;-3.70;99.90;;;;;;5058341;28;20024;-93
2022/01/24 00:53:29;;;;;;;31.65;12.68;;;-3.80;99.90;;;;;;5076327;28;20104;-92
2022/01/24 00:55:56;;;;;;;32.53;13.15;;;-3.80;99.90;;;;;;5058475;28;20051;-94
2022/01/24 00:58:21;;;;;;;23.45;10.90;;;-3.80;99.90;;;;;;5058235;28;20111;-92
2022/01/24 01:00:47;;;;;;;22.95;10.13;;;-3.80;99.90;;;;;;5058118;28;20067;-92
2022/01/24 01:03:13;;;;;;;25.88;10.57;;;-3.80;99.90;;;;;;5058197;28;20107;-92
2022/01/24 01:19:20;;;;;;;22.17;10.52;;;-4.20;99.90;;;;;;5075915;28;20109;-92
2022/01/24 01:21:46;;;;;;;29.58;10.63;;;-4.20;99.90;;;;;;5057435;28;20098;-91
2022/01/24 01:24:13;;;;;;;23.10;10.35;;;-4.20;99.90;;;;;;5058182;28;20029;-92
2022/01/24 01:26:45;;;;;;;24.40;10.48;;;-4.20;99.90;;;;;;5056883;28;20032;-93
2022/01/24 01:29:17;;;;;;;25.60;10.95;;;-4.20;99.90;;;;;;5057285;28;20084;-91
2022/01/24 01:55:39;;;;;;;20.95;8.77;;;-4.10;99.90;;;;;;5075097;28;20028;-92
2022/01/24 01:58:12;;;;;;;20.30;9.45;;;-4.10;99.90;;;;;;5056940;28;20502;-92
2022/01/24 02:00:40;;;;;;;20.25;9.02;;;-4.10;99.90;;;;;;5057091;28;20024;-92
2022/01/24 02:03:07;;;;;;;18.95;9.75;;;-4.00;99.90;;;;;;5056889;28;20490;-92
2022/01/24 02:05:32;;;;;;;19.35;8.38;;;-4.10;99.90;;;;;;5056980;28;20502;-92
2022/01/24 02:07:58;;;;;;;20.00;8.73;;;-4.00;99.90;;;;;;5056790;28;20055;-93
2022/01/24 02:10:25;;;;;;;19.08;8.80;;;-4.10;99.90;;;;;;5057143;28;20028;-93
2022/01/24 02:12:54;;;;;;;21.50;9.57;;;-4.10;99.90;;;;;;5056595;28;20074;-92
2022/01/24 02:15:38;;;;;;;17.23;8.93;;;-4.10;99.90;;;;;;5056839;28;20020;-93
2022/01/24 02:23:44;;;;;;;17.92;8.80;;;-4.10;99.90;;;;;;5074963;28;20024;-92
2022/01/24 02:26:02;;;;;;;15.65;7.95;;;-4.00;99.90;;;;;;5070353;28;20032;-91
2022/01/24 02:28:33;;;;;;;20.05;8.82;;;-4.10;99.90;;;;;;5056621;28;20056;-93
2022/01/24 02:33:33;;;;;;;22.67;9.57;;;-4.00;99.90;;;;;;5074557;28;20013;-92
2022/01/24 02:35:59;;;;;;;21.05;9.77;;;-4.00;99.90;;;;;;5056514;28;20127;-92
2022/01/24 02:38:46;;;;;;;16.30;8.30;;;-4.00;99.90;;;;;;5056451;28;20031;-91
2022/01/24 02:49:33;;;;;;;16.33;8.13;;;-3.90;99.90;;;;;;5074707;28;20498;-92
2022/01/24 02:52:07;;;;;;;16.40;8.03;;;-4.00;99.90;;;;;;5056727;28;20082;-92
2022/01/24 02:54:34;;;;;;;17.02;7.82;;;-4.10;99.90;;;;;;5056596;28;20025;-92
2022/01/24 02:57:01;;;;;;;58.92;18.77;;;-4.20;99.90;;;;;;5056206;28;20025;-92
2022/01/24 02:59:27;;;;;;;20.70;9.38;;;-4.10;99.90;;;;;;5056849;28;20028;-92
2022/01/24 03:01:53;;;;;;;30.98;13.20;;;-4.20;99.90;;;;;;5056209;28;20032;-92
2022/01/24 03:04:19;;;;;;;22.73;11.00;;;-4.20;99.90;;;;;;5056174;28;20024;-92
2022/01/24 03:06:45;;;;;;;22.30;9.13;;;-4.20;99.90;;;;;;5056317;28;20024;-93
2022/01/24 03:09:12;;;;;;;20.83;9.35;;;-4.30;99.90;;;;;;5056563;28;20092;-92
2022/01/24 03:11:58;;;;;;;24.48;10.35;;;-4.30;99.90;;;;;;5057017;28;20050;-92
2022/01/24 03:14:26;;;;;;;18.13;8.30;;;-4.20;99.90;;;;;;5057188;28;20025;-92
2022/01/24 03:16:53;;;;;;;20.80;9.88;;;-4.20;99.90;;;;;;5056266;28;20119;-92
2022/01/24 03:19:19;;;;;;;18.75;8.80;;;-4.20;99.90;;;;;;5056607;28;20021;-91
2022/01/24 03:21:45;;;;;;;32.63;11.55;;;-4.30;99.90;;;;;;5056139;28;20049;-90
2022/01/24 03:24:11;;;;;;;25.48;10.45;;;-4.30;99.90;;;;;;5056361;28;20471;-92
2022/01/24 03:26:37;;;;;;;24.85;9.65;;;-4.30;99.90;;;;;;5056005;28;20463;-92
2022/01/24 03:29:04;;;;;;;20.42;9.40;;;-4.30;99.90;;;;;;5056118;28;20059;-90
2022/01/24 03:31:30;;;;;;;18.50;8.43;;;-4.30;99.90;;;;;;5056824;28;20024;-92
2022/01/24 03:33:55;;;;;;;23.40;10.10;;;-4.40;99.90;;;;;;5056234;28;20024;-92
2022/01/24 03:36:21;;;;;;;23.15;9.40;;;-4.40;99.90;;;;;;5056504;28;20029;-92
2022/01/24 03:38:47;;;;;;;16.63;7.88;;;-4.40;99.90;;;;;;5059833;28;20529;-92
2022/01/24 03:41:12;;;;;;;18.25;8.38;;;-4.50;99.90;;;;;;5059356;28;20028;-93
2022/01/24 03:43:38;;;;;;;19.13;9.05;;;-4.50;99.90;;;;;;5059591;28;20024;-93
2022/01/24 03:52:07;;;;;;;16.17;8.02;;;-4.60;99.90;;;;;;5077535;28;20395;-93
2022/01/24 03:54:32;;;;;;;20.35;8.07;;;-4.60;99.90;;;;;;5059659;28;20020;-93
2022/01/24 03:56:58;;;;;;;18.60;8.45;;;-4.50;99.90;;;;;;5059919;28;20025;-92
2022/01/24 03:59:24;;;;;;;18.25;8.07;;;-4.50;99.90;;;;;;5059726;28;20021;-92
2022/01/24 04:01:49;;;;;;;18.15;7.20;;;-4.50;99.90;;;;;;5059478;28;20028;-91
2022/01/24 05:23:38;;;;;;;20.65;9.65;;;-4.50;99.90;;;;;;5092149;28;20593;-93
2022/01/24 05:26:06;;;;;;;32.63;10.90;;;-4.40;99.90;;;;;;5074229;28;20058;-95
2022/01/24 05:28:34;;;;;;;36.35;10.80;;;-4.40;99.90;;;;;;5074792;28;20111;-94
2022/01/24 05:31:04;;;;;;;20.77;9.80;;;-4.40;99.90;;;;;;5075047;28;20034;-95
2022/01/24 05:33:31;;;;;;;37.42;11.52;;;-4.30;99.90;;;;;;5073674;28;20020;-96
2022/01/24 05:35:57;;;;;;;20.83;9.48;;;-4.30;99.90;;;;;;5073456;28;20097;-95
2022/01/24 05:38:23;;;;;;;19.02;10.05;;;-4.30;99.90;;;;;;5074086;28;20127;-95
2022/01/24 05:40:50;;;;;;;27.08;10.77;;;-4.30;99.90;;;;;;5073316;28;20115;-94
2022/01/24 05:43:15;;;;;;;33.45;10.38;;;-4.30;99.90;;;;;;5073266;28;20044;-91
2022/01/24 05:45:41;;;;;;;24.33;10.02;;;-4.30;99.90;;;;;;5073463;28;20480;-95
2022/01/24 05:48:08;;;;;;;32.03;11.40;;;-4.20;99.90;;;;;;5074295;28;20107;-96
2022/01/24 05:50:35;;;;;;;22.42;10.65;;;-4.20;99.90;;;;;;5088763;28;20024;-96
2022/01/24 05:53:06;;;;;;;28.23;10.57;;;-4.20;99.90;;;;;;5096318;28;20063;-96
2022/01/24 05:55:38;;;;;;;26.08;10.88;;;-4.20;99.90;;;;;;5080230;28;20616;-94
2022/01/24 05:58:03;;;;;;;30.27;12.07;;;-4.20;99.90;;;;;;5079547;28;20466;-96
2022/01/24 06:00:29;;;;;;;17.60;9.15;;;-4.20;99.90;;;;;;5073806;28;20039;-96
2022/01/24 06:02:55;;;;;;;18.85;9.45;;;-4.10;99.90;;;;;;5073267;28;20024;-96
2022/01/24 06:05:21;;;;;;;22.13;10.32;;;-4.10;99.90;;;;;;5073048;28;20097;-96
2022/01/24 06:07:49;;;;;;;27.45;9.82;;;-4.10;99.90;;;;;;5073701;28;20024;-96
2022/01/24 14:06:40;;;;;;;47.55;17.50;;;-3.60;99.90;;;;;;5092491;27;20424;-96
2022/01/24 14:09:15;;;;;;;43.47;18.25;;;-3.50;99.90;;;;;;5093344;28;20024;-96
2022/01/24 14:12:18;;;;;;;39.45;16.13;;;-3.60;99.90;;;;;;5091280;28;20036;-96
2022/01/24 14:14:47;;;;;;;46.63;17.42;;;-3.50;99.90;;;;;;5089434;28;20039;-96
2022/01/24 14:20:03;;;;;;;40.72;17.58;;;-3.50;99.90;;;;;;5092911;28;20111;-95
2022/01/24 14:22:52;;;;;;;41.20;17.85;;;-3.40;99.90;;;;;;5091300;28;20024;-96
2022/01/24 14:25:23;;;;;;;46.72;19.77;;;-3.40;99.90;;;;;;5091872;28;20028;-96
2022/01/24 14:27:58;;;;;;;42.47;18.48;;;-3.40;99.90;;;;;;5092028;28;20477;-96
2022/01/24 14:30:27;;;;;;;43.53;18.55;;;-3.40;99.90;;;;;;5091690;28;20103;-96
2022/01/24 14:33:11;;;;;;;54.63;22.50;;;-3.40;99.90;;;;;;5090303;28;20024;-95
2022/01/24 14:35:43;;;;;;;62.95;23.63;;;-3.30;99.90;;;;;;5091382;28;20024;-94
2022/01/24 14:38:09;;;;;;;47.92;18.75;;;-3.30;99.90;;;;;;5091299;28;20028;-96
2022/01/24 14:40:47;;;;;;;34.22;16.70;;;-3.30;99.90;;;;;;5090444;28;20024;-96
2022/01/24 14:46:07;;;;;;;;;;;-3.30;99.90;;;;;;5092543;28;20557;-96
2022/01/24 14:48:44;;;;;;;39.47;19.88;;;-3.20;99.90;;;;;;5090430;28;19940;-96
2022/01/24 14:51:17;;;;;;;40.22;17.33;;;-3.20;99.90;;;;;;5092726;28;20020;-96
2022/01/24 14:53:48;;;;;;;38.47;16.67;;;-3.30;99.90;;;;;;5092768;28;20056;-96
2022/01/24 14:56:15;;;;;;;50.22;21.90;;;-3.30;99.90;;;;;;5092266;28;20382;-96
2022/01/24 14:58:42;;;;;;;37.78;16.55;;;-3.30;99.90;;;;;;5073693;28;20028;-96
2022/01/24 15:01:08;;;;;;;35.50;15.57;;;-3.30;99.90;;;;;;5090706;28;20030;-96
2022/01/24 15:03:34;;;;;;;34.97;15.60;;;-3.30;99.90;;;;;;5089880;28;20028;-95
2022/01/24 15:06:00;;;;;;;35.30;15.25;;;-3.30;99.90;;;;;;5089350;28;20059;-96
2022/01/24 15:08:27;;;;;;;34.35;15.68;;;-3.30;99.90;;;;;;5089726;28;20028;-94
2022/01/24 15:10:53;;;;;;;30.45;14.85;;;-3.30;99.90;;;;;;5089746;28;20027;-96
2022/01/24 15:13:23;;;;;;;34.97;15.93;;;-3.30;99.90;;;;;;5089779;28;20016;-96
2022/01/24 15:15:59;;;;;;;28.58;14.07;;;-3.40;99.90;;;;;;5088132;28;20029;-95
2022/01/24 15:24:11;;;;;;;39.67;16.65;;;-3.40;99.90;;;;;;5077680;28;20043;-95
2022/01/24 15:26:37;;;;;;;33.28;15.23;;;-3.40;99.90;;;;;;5075967;28;20529;-96
2022/01/24 15:29:02;;;;;;;27.40;13.75;;;-3.40;99.90;;;;;;5076128;28;20105;-96
2022/01/24 15:31:28;;;;;;;41.03;19.25;;;-3.40;99.90;;;;;;5076074;28;20037;-94
2022/01/24 15:33:54;;;;;;;34.53;16.38;;;-3.50;99.90;;;;;;5076952;28;20025;-96
2022/01/24 15:36:20;;;;;;;39.00;17.67;;;-3.50;99.90;;;;;;5076545;28;20120;-94
2022/01/24 15:38:46;;;;;;;48.75;15.90;;;-3.50;99.90;;;;;;5076003;28;20032;-95
2022/01/24 15:41:11;;;;;;;30.85;14.63;;;-3.50;99.90;;;;;;5076531;28;20024;-95
2022/01/24 15:43:56;;;;;;;36.88;15.00;;;-3.60;99.90;;;;;;5075611;28;20028;-95
2022/01/24 15:47:17;;;;;;;34.70;16.35;;;-3.50;99.90;;;;;;5075653;28;20024;-96
2022/01/24 15:49:11;;;;;;;37.15;15.70;;;-3.60;99.90;;;;;;5068647;28;20025;-96
2022/01/24 15:51:36;;;;;;;36.72;16.73;;;-3.60;99.90;;;;;;5076356;28;20024;-96
2022/01/24 15:54:04;;;;;;;48.35;17.05;;;-3.60;99.90;;;;;;5075520;28;20482;-96
2022/01/24 15:58:55;;;;;;;39.42;18.65;;;-3.60;99.90;;;;;;5076872;28;20032;-96
2022/01/24 16:01:24;;;;;;;34.00;16.25;;;-3.60;99.90;;;;;;5075771;28;20052;-95
2022/01/24 16:03:49;;;;;;;37.97;17.90;;;-3.50;99.90;;;;;;5075113;28;20025;-96
2022/01/24 16:06:15;;;;;;;36.05;16.75;;;-3.50;99.90;;;;;;5077301;28;20063;-96
2022/01/24 16:08:41;;;;;;;32.40;15.10;;;-3.50;99.90;;;;;;5075790;28;20024;-93
2022/01/24 16:11:07;;;;;;;26.45;13.63;;;-3.50;99.90;;;;;;5075192;28;20382;-95
2022/01/24 16:13:35;;;;;;;28.83;13.38;;;-3.50;99.90;;;;;;5075047;28;20043;-95
2022/01/24 16:16:01;;;;;;;32.55;14.35;;;-3.50;99.90;;;;;;5075102;28;20491;-96
2022/01/24 16:18:27;;;;;;;28.40;14.30;;;-3.50;99.90;;;;;;5075011;28;20025;-96
2022/01/24 16:23:32;;;;;;;31.10;14.18;;;-3.60;99.90;;;;;;5076166;28;20082;-95
2022/01/24 16:25:58;;;;;;;31.65;14.60;;;-3.60;99.90;;;;;;5074957;28;20052;-96
2022/01/24 16:28:27;;;;;;;27.77;12.73;;;-3.60;99.90;;;;;;5074033;28;20021;-95
2022/01/24 16:30:58;;;;;;;29.10;13.90;;;-3.60;99.90;;;;;;5075074;28;20032;-96
2022/01/24 16:33:26;;;;;;;25.98;12.05;;;-3.60;99.90;;;;;;5074641;28;20021;-96
2022/01/24 16:35:57;;;;;;;26.75;12.75;;;-3.60;99.90;;;;;;5074701;28;20468;-96
2022/01/24 16:38:24;;;;;;;;;;;-3.60;99.90;;;;;;5075187;28;20056;-96
2022/01/24 16:48:32;;;;;;;30.02;13.38;;;-3.70;99.90;;;;;;5075528;28;20419;-94
2022/01/24 16:51:01;;;;;;;34.05;14.27;;;-3.70;99.90;;;;;;5074237;28;20024;-96
2022/01/24 16:53:27;;;;;;;31.65;13.95;;;-3.60;99.90;;;;;;5074373;28;20025;-95
2022/01/24 16:55:57;;;;;;;25.85;12.07;;;-3.70;99.90;;;;;;5074291;28;20033;-96
2022/01/24 16:58:23;;;;;;;26.90;13.40;;;-3.70;99.90;;;;;;5075234;28;20065;-95
2022/01/24 17:00:50;;;;;;;29.25;13.82;;;-3.60;99.90;;;;;;5074017;28;20123;-96
2022/01/24 17:03:17;;;;;;;28.98;13.73;;;-3.70;99.90;;;;;;5074097;28;20029;-96
2022/01/24 17:05:44;;;;;;;35.38;14.23;;;-3.70;99.90;;;;;;5073642;28;20158;-96
2022/01/24 17:08:12;;;;;;;26.30;12.77;;;-3.70;99.90;;;;;;5073907;28;20056;-96
2022/01/24 17:10:38;;;;;;;28.15;13.75;;;-3.70;99.90;;;;;;5073910;28;20020;-96
2022/01/24 17:13:06;;;;;;;48.67;16.15;;;-3.80;99.90;;;;;;5073882;28;20021;-96
2022/01/24 17:15:33;;;;;;;33.17;14.80;;;-3.80;99.90;;;;;;5073943;28;20020;-96
2022/01/24 17:18:00;;;;;;;31.10;13.73;;;-3.80;99.90;;;;;;5073840;28;20111;-95
2022/01/24 17:20:26;;;;;;;35.50;16.30;;;-3.80;99.90;;;;;;5073749;28;20024;-96
2022/01/24 17:22:52;;;;;;;46.15;21.65;;;-3.80;99.90;;;;;;5073692;28;20093;-95
2022/01/24 17:25:18;;;;;;;49.47;23.95;;;-3.80;99.90;;;;;;5075825;28;20028;-95
2022/01/24 17:27:55;;;;;;;40.53;21.75;;;-3.80;99.90;;;;;;5076534;28;20032;-96
2022/01/24 17:34:44;;;;;;;52.10;21.15;;;-3.90;99.90;;;;;;5049065;28;20029;-96
2022/01/24 17:44:02;;;;;;;39.42;15.38;;;-3.90;99.90;;;;;;5001476;28;20022;-95
2022/01/24 17:46:29;;;;;;;29.92;13.48;;;-3.90;99.90;;;;;;5073312;28;20033;-96
2022/01/24 17:48:54;;;;;;;35.53;14.82;;;-4.00;99.90;;;;;;5073382;28;20047;-96
2022/01/24 17:51:20;;;;;;;26.40;13.48;;;-4.00;99.90;;;;;;5073859;28;20478;-94
2022/01/24 17:53:49;;;;;;;31.58;13.85;;;-4.10;99.90;;;;;;5073383;28;20056;-94
2022/01/24 17:56:18;;;;;;;35.42;14.88;;;-4.10;99.90;;;;;;5073532;28;20052;-95
2022/01/24 17:58:44;;;;;;;27.92;12.93;;;-4.00;99.90;;;;;;5073273;28;20035;-95
2022/01/24 18:01:13;;;;;;;36.28;16.30;;;-4.10;99.90;;;;;;5073251;28;20386;-95
2022/01/24 18:03:39;;;;;;;27.80;12.40;;;-4.00;99.90;;;;;;5073538;28;20029;-96
2022/01/24 18:06:07;;;;;;;29.10;13.43;;;-4.10;99.90;;;;;;5073503;28;20505;-96
2022/01/24 18:08:38;;;;;;;38.17;15.93;;;-4.10;99.90;;;;;;5073623;28;20051;-96
2022/01/24 18:11:14;;;;;;;33.63;14.55;;;-4.10;99.90;;;;;;5073644;28;20028;-94
2022/01/24 18:13:41;;;;;;;31.27;15.35;;;-4.10;99.90;;;;;;5073047;28;20078;-94
2022/01/24 18:16:07;;;;;;;32.38;15.75;;;-4.20;99.90;;;;;;5073223;28;20082;-96
2022/01/24 18:18:34;;;;;;;38.00;15.40;;;-4.20;99.90;;;;;;5072752;28;20025;-95
2022/01/24 18:21:01;;;;;;;42.17;15.80;;;-4.20;99.90;;;;;;5073101;28;20073;-94
2022/01/24 18:23:26;;;;;;;33.55;16.10;;;-4.20;99.90;;;;;;5073369;28;20029;-94
2022/01/24 18:25:56;;;;;;;32.08;13.82;;;-4.30;99.90;;;;;;5073083;28;20375;-95
2022/01/24 18:28:24;;;;;;;25.98;12.80;;;-4.30;99.90;;;;;;5073120;28;20082;-96
2022/01/24 18:31:11;;;;;;;30.15;13.32;;;-4.30;99.90;;;;;;5073140;28;20116;-93
2022/01/24 18:34:03;;;;;;;30.67;12.75;;;-4.30;99.90;;;;;;5083435;28;20119;-96
2022/01/24 18:36:39;;;;;;;30.17;14.10;;;-4.30;99.90;;;;;;5032466;28;20033;-96
2022/01/24 18:39:39;;;;;;;28.33;14.32;;;-4.40;99.90;;;;;;5076696;28;20044;-96
2022/01/24 18:42:16;;;;;;;29.73;15.27;;;-4.50;99.90;;;;;;5479234;22;20021;-96
2022/01/24 18:48:37;;;;;;;34.15;16.58;;;-4.40;99.90;;;;;;5379003;23;20110;-96
2022/01/24 18:51:33;;;;;;;31.85;15.23;;;-4.40;99.90;;;;;;5012115;28;20018;-96
2022/01/24 18:54:06;;;;;;;29.48;14.50;;;-4.40;99.90;;;;;;5008028;28;20485;-96
2022/01/24 19:00:21;;;;;;;32.05;13.82;;;-4.40;99.90;;;;;;4961855;28;20042;-96
2022/01/24 19:09:59;;;;;;;30.75;13.35;;;-4.40;99.90;;;;;;5531342;23;20935;-96
2022/01/24 19:12:27;;;;;;;35.03;15.38;;;-4.40;99.90;;;;;;4999804;28;20034;-95
2022/01/24 19:14:53;;;;;;;29.33;13.93;;;-4.40;99.90;;;;;;4998175;28;20027;-96
2022/01/24 19:17:26;;;;;;;30.77;14.52;;;-4.40;99.90;;;;;;4997072;28;20026;-96
2022/01/24 19:25:34;;;;;;;35.42;16.90;;;-4.40;99.90;;;;;;5001888;28;20033;-96
2022/01/24 19:28:14;;;;;;;34.03;16.50;;;-4.40;99.90;;;;;;5000771;28;20384;-95
2022/01/24 19:30:41;;;;;;;36.20;17.38;;;-4.40;99.90;;;;;;4997960;28;20098;-93
2022/01/24 19:33:06;;;;;;;34.00;17.27;;;-4.40;99.90;;;;;;5000092;28;20495;-95
2022/01/24 19:35:32;;;;;;;39.38;17.58;;;-4.40;99.90;;;;;;4996217;28;20027;-96
2022/01/24 19:37:59;;;;;;;37.67;17.92;;;-4.40;99.90;;;;;;4996325;28;20045;-94
2022/01/24 19:40:25;;;;;;;35.35;18.17;;;-4.40;99.90;;;;;;4996198;28;20036;-96
2022/01/24 19:42:51;;;;;;;34.95;17.17;;;-4.30;99.90;;;;;;4996382;28;20023;-96
2022/01/24 19:45:20;;;;;;;33.90;16.25;;;-4.40;99.90;;;;;;4996001;28;20038;-96
2022/01/24 19:47:46;;;;;;;36.17;16.20;;;-4.30;99.90;;;;;;4996155;28;20058;-95
2022/01/24 19:50:13;;;;;;;34.28;14.95;;;-4.30;99.90;;;;;;4995977;28;20456;-95
2022/01/24 19:52:39;;;;;;;29.90;16.10;;;-4.30;99.90;;;;;;4996313;28;20465;-94
2022/01/24 19:55:12;;;;;;;34.88;15.68;;;-4.30;99.90;;;;;;4996104;28;20040;-96
2022/01/24 19:57:47;;;;;;;40.70;17.50;;;-4.30;99.90;;;;;;4996034;28;20031;-95
2022/01/24 20:00:14;;;;;;;32.58;15.55;;;-4.30;99.90;;;;;;4996070;28;20054;-95
2022/01/24 20:02:39;;;;;;;32.20;15.55;;;-4.30;99.90;;;;;;4996179;28;20248;-96
2022/01/24 20:05:05;;;;;;;34.30;16.13;;;-4.40;99.90;;;;;;4996013;28;20038;-95
2022/01/24 20:07:31;;;;;;;35.78;15.77;;;-4.30;99.90;;;;;;5000288;28;20081;-96
2022/01/24 20:09:57;;;;;;;36.15;17.50;;;-4.30;99.90;;;;;;5002935;28;20137;-96
2022/01/24 20:15:46;;;;;;;38.65;18.15;;;-4.40;99.90;;;;;;4959481;28;20027;-96
2022/01/24 20:18:12;;;;;;;48.92;20.70;;;-4.30;99.90;;;;;;5008394;28;20014;-96
2022/01/24 20:20:38;;;;;;;38.97;18.30;;;-4.40;99.90;;;;;;4998923;28;20432;-95
2022/01/24 20:23:04;;;;;;;34.78;15.23;;;-4.40;99.90;;;;;;4999674;28;20056;-96
2022/01/24 20:25:33;;;;;;;36.25;15.43;;;-4.40;99.90;;;;;;5000818;28;20039;-96
2022/01/24 20:28:07;;;;;;;39.58;16.63;;;-4.40;99.90;;;;;;5001842;28;20026;-96
2022/01/24 20:30:36;;;;;;;31.50;15.07;;;-4.40;99.90;;;;;;5002406;28;20027;-96
2022/01/24 20:33:02;;;;;;;30.10;15.48;;;-4.40;99.90;;;;;;4997492;28;20026;-96
2022/01/24 20:35:37;;;;;;;33.00;14.95;;;-4.40;99.90;;;;;;4999792;28;20109;-96
2022/01/24 20:38:13;;;;;;;28.23;12.48;;;-4.40;99.90;;;;;;5000186;28;20121;-95
2022/01/24 20:40:40;;;;;;;23.75;13.13;;;-4.30;99.90;;;;;;5000698;28;20035;-96
2022/01/24 20:43:06;;;;;;;28.73;13.43;;;-4.40;99.90;;;;;;5004410;28;20032;-96
2022/01/24 20:45:39;;;;;;;30.80;14.50;;;-4.40;99.90;;;;;;4997662;28;20459;-95
2022/01/24 20:48:08;;;;;;;26.17;12.30;;;-4.40;99.90;;;;;;4998048;28;20018;-96
2022/01/24 20:50:35;;;;;;;28.55;13.88;;;-4.30;99.90;;;;;;4998327;28;20018;-95
2022/01/24 20:53:03;;;;;;;29.23;14.18;;;-4.30;99.90;;;;;;4998509;28;20049;-96
2022/01/24 20:55:31;;;;;;;28.27;13.32;;;-4.40;99.90;;;;;;5000171;28;20034;-96
2022/01/24 20:57:58;;;;;;;30.80;13.52;;;-4.30;99.90;;;;;;4997489;28;20030;-95
2022/01/24 21:00:24;;;;;;;32.03;14.18;;;-4.30;99.90;;;;;;4995574;28;20034;-96
2022/01/24 21:06:14;;;;;;;24.08;12.15;;;-4.30;99.90;;;;;;5001733;28;20118;-96
2022/01/24 21:08:40;;;;;;;27.10;12.48;;;-4.30;99.90;;;;;;5000765;28;20058;-96
2022/01/24 21:11:24;;;;;;;27.80;13.68;;;-4.30;99.90;;;;;;4997206;28;20101;-96
2022/01/24 21:13:53;;;;;;;27.02;13.38;;;-4.30;99.90;;;;;;4999019;28;20030;-96
2022/01/24 21:16:22;;;;;;;27.00;12.88;;;-4.30;99.90;;;;;;4998773;28;20026;-96
2022/01/24 21:18:49;;;;;;;30.88;14.07;;;-4.30;99.90;;;;;;4999911;28;20022;-94
2022/01/24 21:21:15;;;;;;;27.90;12.50;;;-4.30;99.90;;;;;;5006158;28;20038;-96
2022/01/24 21:23:44;;;;;;;30.95;13.18;;;-4.30;99.90;;;;;;5002464;28;20026;-96
2022/01/24 21:26:19;;;;;;;29.58;12.85;;;-4.30;99.90;;;;;;5005063;28;20034;-96
2022/01/24 21:29:00;;;;;;;26.52;11.85;;;-4.30;99.90;;;;;;5005480;28;20018;-96
2022/01/24 21:36:50;;;;;;;27.55;12.23;;;-4.30;99.90;;;;;;5013785;23;20505;-95
2022/01/24 21:39:17;;;;;;;31.88;13.35;;;-4.40;99.90;;;;;;4984631;28;20031;-96
2022/01/24 21:41:51;;;;;;;33.40;14.93;;;-4.40;99.90;;;;;;4983000;28;20058;-96
2022/01/24 21:44:17;;;;;;;32.15;13.95;;;-4.40;99.90;;;;;;4985668;28;20010;-96
2022/01/24 21:46:45;;;;;;;32.20;14.55;;;-4.40;99.90;;;;;;4983429;28;20027;-96
2022/01/24 21:49:11;;;;;;;26.40;15.07;;;-4.40;99.90;;;;;;4982386;28;20023;-96
2022/01/24 21:51:37;;;;;;;32.28;15.02;;;-4.40;99.90;;;;;;4982257;28;20054;-93
2022/01/24 21:54:06;;;;;;;31.27;14.82;;;-4.50;99.90;;;;;;4984045;28;20035;-96
2022/01/24 21:56:32;;;;;;;46.70;23.35;;;-4.60;99.90;;;;;;4980772;28;20488;-96
2022/01/24 21:58:59;;;;;;;30.55;15.02;;;-4.50;99.90;;;;;;5067126;23;20328;-96
2022/01/24 22:01:34;;;;;;;29.50;14.27;;;-4.60;99.90;;;;;;4985812;28;20103;-96
2022/01/24 22:04:00;;;;;;;29.95;14.27;;;-4.60;99.90;;;;;;4987262;28;20023;-96
2022/01/24 22:06:27;;;;;;;28.25;13.88;;;-4.60;99.90;;;;;;4987551;28;20057;-96
2022/01/24 22:08:53;;;;;;;29.40;13.18;;;-4.50;99.90;;;;;;4983478;28;20034;-96
2022/01/24 22:11:22;;;;;;;30.73;12.40;;;-4.50;99.90;;;;;;4984589;28;20090;-96
2022/01/24 22:13:50;;;;;;;39.05;13.65;;;-4.60;99.90;;;;;;4962381;28;20027;-96
2022/01/24 22:16:19;;;;;;;25.70;12.60;;;-4.70;99.90;;;;;;4982928;28;20026;-95
2022/01/24 22:18:52;;;;;;;25.50;12.27;;;-4.60;99.90;;;;;;5060547;23;20063;-96
2022/01/24 22:21:18;;;;;;;23.92;10.27;;;-4.70;99.90;;;;;;5185720;23;20084;-96
2022/01/24 22:23:48;;;;;;;23.60;11.95;;;-4.70;99.90;;;;;;4988984;28;20093;-96
2022/01/24 22:26:44;;;;;;;24.50;11.80;;;-4.60;99.90;;;;;;5073399;23;20050;-96
2022/01/24 22:29:26;;;;;;;24.15;11.23;;;-4.70;99.90;;;;;;4989348;28;20031;-96
2022/01/24 22:31:52;;;;;;;25.42;11.48;;;-4.70;99.90;;;;;;4990137;28;20023;-96
2022/01/24 22:34:19;;;;;;;26.30;11.43;;;-4.60;99.90;;;;;;4992245;28;20031;-96
2022/01/24 22:36:45;;;;;;;23.67;11.95;;;-4.60;99.90;;;;;;4988096;28;20026;-96
2022/01/24 22:39:17;;;;;;;25.08;11.75;;;-4.70;99.90;;;;;;4990221;28;20045;-96
2022/01/24 22:44:18;;;;;;;24.30;12.07;;;-4.70;99.90;;;;;;4995492;28;20045;-95
2022/01/24 22:46:51;;;;;;;23.65;11.30;;;-4.60;99.90;;;;;;4990386;28;20137;-96
2022/01/24 22:49:51;;;;;;;26.52;12.57;;;-4.60;99.90;;;;;;4970603;28;20023;-96
2022/01/24 22:52:30;;;;;;;21.83;11.57;;;-4.70;99.90;;;;;;4985195;28;20023;-96
2022/01/24 22:54:56;;;;;;;24.33;12.13;;;-4.60;99.90;;;;;;4994863;28;20027;-96
2022/01/24 22:57:42;;;;;;;29.02;11.63;;;-4.60;99.90;;;;;;4989798;28;20089;-96
2022/01/24 23:00:44;;;;;;;26.80;13.55;;;-4.60;99.90;;;;;;5086750;23;20265;-94
2022/01/24 23:03:10;;;;;;;27.95;13.18;;;-4.60;99.90;;;;;;4987768;28;20091;-93
2022/01/24 23:05:44;;;;;;;27.95;13.18;;;-4.70;99.90;;;;;;4985881;28;20050;-96
2022/01/24 23:08:11;;;;;;;25.23;12.45;;;-4.70;99.90;;;;;;4990321;28;20023;-96
2022/01/24 23:10:39;;;;;;;26.00;11.90;;;-4.80;99.90;;;;;;5168954;23;20054;-96
2022/01/24 23:21:18;;;;;;;28.55;11.88;;;-4.80;99.90;;;;;;4984096;28;20445;-96
2022/01/24 23:23:55;;;;;;;28.40;12.52;;;-4.80;99.90;;;;;;4991024;28;20035;-96
2022/01/24 23:26:30;;;;;;;30.48;13.20;;;-4.80;99.90;;;;;;4994838;28;20026;-96
2022/01/24 23:32:52;;;;;;;28.75;12.30;;;-4.80;99.90;;;;;;4989885;28;20095;-96
2022/01/24 23:45:01;;;;;;;27.13;12.80;;;-4.80;99.90;;;;;;5036445;23;20070;-96
2022/01/24 23:47:27;;;;;;;41.67;14.27;;;-4.90;99.90;;;;;;4985770;28;20035;-96
2022/01/24 23:49:57;;;;;;;34.92;14.90;;;-4.90;99.90;;;;;;4983206;28;20331;-96
2022/01/24 23:52:23;;;;;;;32.58;14.00;;;-4.90;99.90;;;;;;5145767;23;20029;-96
2022/01/24 23:57:58;;;;;;;27.67;12.82;;;-4.80;99.90;;;;;;5004046;23;20055;-96
